Time,TemperatureF,DewpointF,PressureIn,WindDirection,WindDirectionDegrees,WindSpeedMPH,WindSpeedGustMPH,Humidity,HourlyPrecipIn,Conditions,Clouds,dailyrainin,SoftwareType,DateUTC
2013-01-09 00:30:00,33.7,27.0,29.53,South,183,0.0,3.0,76,0.00,,---,0.00,VWS V13.01,2013-01-09 05:30:00,
2013-01-09 01:00:00,33.5,26.8,29.54,South,182,0.0,4.0,76,0.00,,---,0.00,VWS V13.01,2013-01-09 06:00:00,
2013-01-09 01:30:00,34.1,27.3,29.51,South,174,0.0,4.0,76,0.00,,---,0.00,VWS V13.01,2013-01-09 06:30:00,
2013-01-09 02:00:00,34.9,28.1,29.49,SSE,158,0.0,9.0,76,0.00,,---,0.00,VWS V13.01,2013-01-09 07:00:00,
2013-01-09 02:30:00,34.9,28.4,29.49,South,179,0.0,5.0,77,0.00,,---,0.00,VWS V13.01,2013-01-09 07:30:00,
2013-01-09 03:00:00,35.5,29.3,29.49,South,190,0.0,4.0,78,0.00,,---,0.00,VWS V13.01,2013-01-09 08:00:00,
2013-01-09 03:30:00,36.3,30.1,29.47,South,182,2.0,7.0,78,0.00,,---,0.00,VWS V13.01,2013-01-09 08:30:00,
2013-01-09 04:00:00,36.8,30.6,29.47,SSW,209,0.0,6.0,78,0.00,,---,0.00,VWS V13.01,2013-01-09 09:00:00,
2013-01-09 04:30:00,37.0,31.4,29.46,SSW,192,0.0,5.0,80,0.00,,---,0.00,VWS V13.01,2013-01-09 09:30:00,
2013-01-09 05:00:00,37.1,31.8,29.45,South,186,0.0,3.0,81,0.00,,---,0.00,VWS V13.01,2013-01-09 10:00:00,
2013-01-09 05:30:00,37.0,32.6,29.45,SSW,196,0.0,4.0,84,0.00,,---,0.00,VWS V13.01,2013-01-09 10:30:00,
2013-01-09 06:00:00,37.1,33.0,29.47,SSE,167,0.0,1.0,85,0.00,,---,0.00,VWS V13.01,2013-01-09 11:00:00,
2013-01-09 06:30:00,38.8,34.1,29.46,South,191,0.0,7.0,83,0.00,,---,0.00,VWS V13.01,2013-01-09 11:30:00,
2013-01-09 07:00:00,38.7,34.3,29.48,SW,234,0.0,9.0,84,0.00,,---,0.00,VWS V13.01,2013-01-09 12:00:00,
2013-01-09 07:30:00,38.6,34.2,29.50,WSW,250,0.0,5.0,84,0.00,,---,0.00,VWS V13.01,2013-01-09 12:30:00,
2013-01-09 08:00:00,38.7,34.6,29.52,SSW,213,0.0,5.0,85,0.00,,---,0.00,VWS V13.01,2013-01-09 13:00:00,
2013-01-09 08:30:00,38.6,34.2,29.55,West,267,0.0,6.0,84,0.00,,---,0.00,VWS V13.01,2013-01-09 13:30:00,
2013-01-09 09:00:00,38.5,33.8,29.58,West,279,0.0,4.0,83,0.00,,---,0.00,VWS V13.01,2013-01-09 14:00:00,
2013-01-09 09:30:00,38.9,33.9,29.59,WSW,246,0.0,5.0,82,0.00,,---,0.00,VWS V13.01,2013-01-09 14:30:00,
2013-01-09 10:00:00,39.4,34.1,29.59,WSW,239,0.0,5.0,81,0.00,,---,0.00,VWS V13.01,2013-01-09 15:00:00,
2013-01-09 10:30:00,40.7,34.4,29.59,SW,231,3.0,5.0,78,0.00,,---,0.00,VWS V13.01,2013-01-09 15:30:00,
2013-01-09 11:00:00,43.6,35.5,29.60,SSW,209,0.0,10.0,73,0.00,,---,0.00,VWS V13.01,2013-01-09 16:00:00,
2013-01-09 11:30:00,45.1,35.2,29.59,West,264,0.0,13.0,68,0.00,,---,0.00,VWS V13.01,2013-01-09 16:30:00,
2013-01-09 12:00:00,46.1,35.0,29.60,West,280,0.0,15.0,65,0.00,,---,0.00,VWS V13.01,2013-01-09 17:00:00,
2013-01-09 12:30:00,46.3,34.8,29.60,SW,220,5.0,11.0,64,0.00,,---,0.00,VWS V13.01,2013-01-09 17:30:00,
2013-01-09 13:00:00,45.6,33.8,29.59,WSW,239,5.0,12.0,63,0.00,,---,0.00,VWS V13.01,2013-01-09 18:00:00,
2013-01-09 13:30:00,46.0,34.1,29.60,WNW,290,3.0,12.0,63,0.00,,---,0.00,VWS V13.01,2013-01-09 18:30:00,
2013-01-09 14:00:00,46.0,33.7,29.63,SSW,197,1.0,19.0,62,0.00,,---,0.00,VWS V13.01,2013-01-09 19:00:00,
2013-01-09 14:30:00,45.6,32.5,29.65,West,266,3.0,13.0,60,0.00,,---,0.00,VWS V13.01,2013-01-09 19:30:00,
2013-01-09 15:00:00,45.7,31.8,29.66,WSW,243,6.0,14.0,58,0.00,,---,0.00,VWS V13.01,2013-01-09 20:00:00,
2013-01-09 15:30:00,50.6,33.6,29.69,NW,312,1.0,13.0,52,0.00,,---,0.00,VWS V13.01,2013-01-09 20:30:00,
2013-01-09 16:00:00,50.9,30.9,29.70,NW,312,4.0,12.0,46,0.00,,---,0.00,VWS V13.01,2013-01-09 21:00:00,
2013-01-09 16:30:00,43.0,30.1,29.74,WSW,256,0.0,11.0,60,0.00,,---,0.00,VWS V13.01,2013-01-09 21:30:00,
2013-01-09 17:00:00,40.9,29.3,29.77,NW,312,3.0,9.0,63,0.00,,---,0.00,VWS V13.01,2013-01-09 22:00:00,
2013-01-09 17:30:00,39.7,29.3,29.77,WSW,248,0.0,9.0,66,0.00,,---,0.00,VWS V13.01,2013-01-09 22:30:00,
2013-01-09 18:00:00,38.9,29.2,29.79,WNW,302,0.0,8.0,68,0.00,,---,0.00,VWS V13.01,2013-01-09 23:00:00,
2013-01-09 18:30:00,38.3,29.7,29.82,WSW,237,0.0,7.0,71,0.00,,---,0.00,VWS V13.01,2013-01-09 23:30:00,
2013-01-09 19:00:00,37.9,29.7,29.82,West,270,0.0,1.0,72,0.00,,---,0.00,VWS V13.01,2013-01-10 00:00:00,
2013-01-09 19:30:00,37.6,29.4,29.83,NW,315,0.0,0.0,72,0.00,,---,0.00,VWS V13.01,2013-01-10 00:30:00,
2013-01-09 20:00:00,37.1,29.3,29.86,West,269,0.0,0.0,73,0.00,,---,0.00,VWS V13.01,2013-01-10 01:00:00,
2013-01-09 20:30:00,36.4,29.6,29.86,WNW,285,0.0,0.0,76,0.00,,---,0.00,VWS V13.01,2013-01-10 01:30:00,
2013-01-09 21:00:00,36.1,29.3,29.87,NW,306,0.0,0.0,76,0.00,,---,0.00,VWS V13.01,2013-01-10 02:00:00,
2013-01-09 21:30:00,35.3,28.8,29.88,NW,305,0.0,0.0,77,0.00,,---,0.00,VWS V13.01,2013-01-10 02:30:00,
2013-01-09 22:00:00,34.6,28.5,29.90,NW,305,0.0,0.0,78,0.00,,---,0.00,VWS V13.01,2013-01-10 03:00:00,
2013-01-09 22:30:00,33.7,27.9,29.89,WNW,298,0.0,0.0,79,0.00,,---,0.00,VWS V13.01,2013-01-10 03:30:00,
2013-01-09 23:00:00,33.2,27.7,29.89,WNW,299,0.0,0.0,80,0.00,,---,0.00,VWS V13.01,2013-01-10 04:00:00,
2013-01-09 23:30:00,32.3,27.1,29.88,WNW,299,0.0,0.0,81,0.00,,---,0.00,VWS V13.01,2013-01-10 04:30:00,